Time;durP1;ratioP1;P1;durP2;ratioP2;P2;SDS_P1;SDS_P2;PMS_P1;PMS_P2;Temp;Humidity;BMP_temperature;BMP_pressure;BME280_temperature;BME280_humidity;BME280_pressure;Samples;Min_cycle;Max_cycle;Signal;HPM_P1;HPM_P2
2022/06/26 00:00:29;;;;;;;5.23;4.50;;;;;;;19.87;87.33;97832.28;4125399;28;20772;-87
2022/06/26 00:02:32;;;;;;;6.33;5.00;;;;;;;19.85;86.02;97824.47;4122604;28;20628;-87
2022/06/26 00:04:35;;;;;;;6.10;5.10;;;;;;;19.85;85.88;97827.13;4148169;28;20735;-86
2022/06/26 00:06:39;;;;;;;4.90;4.50;;;;;;;19.83;86.57;97826.47;4127932;28;20655;-87
2022/06/26 00:08:42;;;;;;;5.97;4.67;;;;;;;19.80;87.92;97831.28;4143316;28;20669;-87
2022/06/26 00:10:46;;;;;;;4.97;4.47;;;;;;;19.77;87.38;97821.03;4142656;28;20737;-87
2022/06/26 00:12:49;;;;;;;4.93;4.43;;;;;;;19.75;85.98;97830.13;4122294;28;20633;-87
2022/06/26 00:14:52;;;;;;;5.50;5.00;;;;;;;19.72;86.16;97825.97;4134546;28;20739;-85
2022/06/26 00:16:56;;;;;;;5.90;5.40;;;;;;;19.69;86.50;97821.00;4135634;28;20652;-87
2022/06/26 00:19:00;;;;;;;5.43;4.93;;;;;;;19.66;87.66;97826.66;4142192;28;20653;-87
2022/06/26 00:21:03;;;;;;;5.40;4.70;;;;;;;19.64;87.11;97826.00;4121478;28;20630;-86
2022/06/26 00:23:06;;;;;;;5.20;4.70;;;;;;;19.62;86.71;97828.00;4138369;28;20689;-87
2022/06/26 00:25:10;;;;;;;5.27;4.60;;;;;;;19.60;86.55;97829.13;4136489;28;20689;-86
2022/06/26 00:27:13;;;;;;;5.27;4.77;;;;;;;19.57;86.63;97829.47;4123380;28;20641;-87
2022/06/26 00:29:16;;;;;;;6.37;4.67;;;;;;;19.54;87.55;97835.09;4135946;28;20659;-87
2022/06/26 00:31:20;;;;;;;6.60;5.33;;;;;;;19.51;88.14;97838.06;4122628;28;20652;-86
2022/06/26 00:33:24;;;;;;;5.40;4.77;;;;;;;19.46;86.85;97841.22;4121093;28;20673;-87
2022/06/26 00:35:27;;;;;;;5.40;4.90;;;;;;;19.43;87.18;97835.44;4124694;28;20693;-87
2022/06/26 00:37:31;;;;;;;6.20;4.93;;;;;;;19.40;87.17;97843.69;4151901;28;20720;-87
2022/06/26 00:39:43;;;;;;;8.17;4.70;;;;;;;19.36;88.46;97831.78;4136112;28;20661;-87
2022/06/26 00:41:47;;;;;;;5.30;4.80;;;;;;;19.35;88.51;97842.53;4119997;28;20657;-87
2022/06/26 00:43:50;;;;;;;5.20;4.70;;;;;;;19.33;88.22;97850.63;4123866;28;20636;-87
2022/06/26 00:45:55;;;;;;;5.37;4.87;;;;;;;19.30;88.25;97848.31;4138780;28;20633;-87
2022/06/26 00:47:58;;;;;;;5.40;4.23;;;;;;;19.27;88.82;97858.41;4126518;28;20640;-86
2022/06/26 00:50:05;;;;;;;5.17;4.53;;;;;;;19.27;87.66;97868.97;4120894;28;20649;-86
2022/06/26 00:52:08;;;;;;;5.20;4.30;;;;;;;19.26;87.75;97873.47;4157891;28;20660;-86
2022/06/26 00:54:11;;;;;;;4.87;4.40;;;;;;;19.22;88.62;97874.75;4122785;28;21004;-87
2022/06/26 00:56:15;;;;;;;4.80;4.40;;;;;;;19.20;88.33;97882.03;4142547;28;22166;-85
2022/06/26 00:58:19;;;;;;;5.50;4.93;;;;;;;19.19;87.65;97890.13;4141742;28;20637;-87
2022/06/26 01:00:22;;;;;;;5.63;4.70;;;;;;;19.19;87.93;97890.13;4139418;28;21005;-87
2022/06/26 01:02:25;;;;;;;6.10;4.80;;;;;;;19.18;87.81;97893.75;4123390;28;21219;-87
2022/06/26 01:04:29;;;;;;;5.10;4.60;;;;;;;19.17;89.08;97897.38;4139401;28;20637;-87
2022/06/26 01:06:36;;;;;;;5.17;4.67;;;;;;;19.17;88.19;97900.88;4124770;28;20653;-87
2022/06/26 01:08:39;;;;;;;4.90;4.47;;;;;;;19.17;88.00;97906.16;4138473;28;21066;-87
2022/06/26 01:10:42;;;;;;;4.90;4.40;;;;;;;19.16;88.65;97920.38;4119668;28;20658;-87
2022/06/26 01:12:51;;;;;;;4.70;4.30;;;;;;;19.18;88.29;97957.22;4139720;28;20669;-87
2022/06/26 01:14:55;;;;;;;4.70;4.30;;;;;;;19.18;87.80;97954.59;4135908;28;20633;-87
2022/06/26 01:16:59;;;;;;;4.53;4.13;;;;;;;19.17;88.46;97927.31;4136475;28;20648;-87
2022/06/26 01:19:04;;;;;;;5.80;4.80;;;;;;;19.21;88.69;97927.81;4125357;28;21216;-87
2022/06/26 01:21:07;;;;;;;5.70;4.60;;;;;;;19.26;87.58;97930.81;4120719;28;21083;-87
2022/06/26 01:23:12;;;;;;;5.33;4.47;;;;;;;19.26;87.10;97929.00;4128003;28;20687;-86
2022/06/26 01:25:15;;;;;;;5.80;4.80;;;;;;;19.27;87.12;97937.75;4121093;28;20677;-86
2022/06/26 01:27:18;;;;;;;6.40;4.30;;;;;;;19.28;86.99;97939.41;4136480;28;20647;-87
2022/06/26 01:29:21;;;;;;;4.40;4.00;;;;;;;19.31;87.61;97952.31;4124700;28;20661;-87
2022/06/26 01:31:28;;;;;;;5.40;4.67;;;;;;;19.29;87.64;97963.06;4138164;28;22494;-86
2022/06/26 01:33:33;;;;;;;4.90;4.03;;;;;;;19.28;88.83;97971.16;4141452;28;20661;-87
2022/06/26 01:35:37;;;;;;;4.57;4.17;;;;;;;19.26;87.57;97966.03;4127063;28;20781;-87
2022/06/26 01:37:41;;;;;;;5.43;4.60;;;;;;;19.25;88.51;97966.19;4142116;28;20641;-87
2022/06/26 01:39:47;;;;;;;5.23;4.47;;;;;;;19.23;88.36;97963.72;4117781;28;20682;-87
2022/06/26 01:41:50;;;;;;;5.10;4.60;;;;;;;19.21;88.82;97957.72;4119301;28;20645;-87
2022/06/26 01:43:54;;;;;;;5.93;4.83;;;;;;;19.20;88.29;97952.59;4122101;28;20660;-87
2022/06/26 01:45:58;;;;;;;3.97;3.67;;;;;;;19.20;88.12;97948.16;4140304;28;20628;-86
2022/06/26 01:48:06;;;;;;;4.57;4.17;;;;;;;19.18;87.16;97950.13;4126874;28;20634;-86
2022/06/26 01:50:10;;;;;;;4.43;4.03;;;;;;;19.20;87.77;97945.53;4123562;28;20634;-87
2022/06/26 01:52:15;;;;;;;4.53;4.10;;;;;;;19.18;86.28;97939.53;4120892;28;21104;-87
2022/06/26 01:54:21;;;;;;;4.80;4.20;;;;;;;19.19;86.13;97940.38;4144969;28;20651;-87
2022/06/26 01:56:27;;;;;;;4.77;4.30;;;;;;;19.19;87.32;97943.03;4132916;28;21102;-87
2022/06/26 01:58:30;;;;;;;5.60;4.50;;;;;;;19.20;87.43;97931.44;4122311;28;21179;-87
2022/06/26 02:00:37;;;;;;;6.37;3.73;;;;;;;19.22;87.38;97929.47;4123455;28;20626;-87
2022/06/26 02:02:40;;;;;;;4.17;3.83;;;;;;;19.21;87.96;97923.34;4124393;28;20690;-87
2022/06/26 02:04:43;;;;;;;5.40;4.57;;;;;;;19.25;87.33;97913.28;4123433;28;20687;-87
2022/06/26 02:06:46;;;;;;;6.10;3.97;;;;;;;19.29;88.03;97919.91;4125339;28;20667;-87
2022/06/26 02:08:55;;;;;;;7.50;4.03;;;;;;;19.35;87.78;97916.59;4121114;28;20648;-86
2022/06/26 02:13:36;;;;;;;5.60;4.50;;;;;;;19.42;87.62;97908.69;4103897;28;20701;-86
2022/06/26 02:15:41;;;;;;;4.40;4.00;;;;;;;19.47;87.16;97908.22;4132374;28;20648;-87
2022/06/26 02:17:44;;;;;;;4.20;3.77;;;;;;;19.50;87.71;97919.28;4124161;28;20637;-87
2022/06/26 02:19:47;;;;;;;4.50;4.10;;;;;;;19.50;86.99;97934.31;4134030;28;20645;-87
2022/06/26 02:21:50;;;;;;;4.57;4.17;;;;;;;19.48;87.40;97934.50;4116131;28;20637;-87
2022/06/26 02:23:54;;;;;;;5.47;4.03;;;;;;;19.50;86.67;97932.50;4140899;28;21224;-87
2022/06/26 02:25:57;;;;;;;6.10;4.60;;;;;;;19.53;86.88;97933.97;4132842;28;20896;-87
2022/06/26 02:28:00;;;;;;;7.10;4.20;;;;;;;19.55;86.97;97932.84;4142588;28;20635;-87
2022/06/26 02:30:08;;;;;;;4.93;4.03;;;;;;;19.57;88.48;97933.50;4125637;28;20649;-87
2022/06/26 02:32:11;;;;;;;4.37;3.90;;;;;;;19.58;87.33;97931.69;4138430;28;20732;-87
2022/06/26 02:34:14;;;;;;;5.30;3.70;;;;;;;19.59;87.24;97930.69;4139361;28;21286;-87
2022/06/26 02:36:19;;;;;;;8.53;4.70;;;;;;;19.60;86.50;97938.47;4122298;28;20639;-86
2022/06/26 02:38:22;;;;;;;5.80;4.13;;;;;;;19.62;88.24;97948.88;4157603;28;20651;-87
2022/06/26 02:40:27;;;;;;;5.27;4.50;;;;;;;19.64;88.67;97958.31;4119938;28;20639;-87
2022/06/26 02:42:30;;;;;;;5.50;4.13;;;;;;;19.60;87.74;97951.69;4124704;28;20639;-87
2022/06/26 02:44:44;;;;;;;7.80;4.20;;;;;;;19.59;88.50;97947.41;4146200;28;20662;-87
2022/06/26 02:46:48;;;;;;;6.83;4.40;;;;;;;19.56;86.59;97942.44;4146146;28;20740;-87
2022/06/26 02:48:52;;;;;;;7.37;4.53;;;;;;;19.51;87.28;97944.72;4141897;28;20645;-87
2022/06/26 02:50:55;;;;;;;4.50;3.90;;;;;;;19.45;88.39;97941.91;4126280;28;20670;-86
2022/06/26 02:52:58;;;;;;;4.80;4.30;;;;;;;19.41;87.94;97948.53;4124577;28;20651;-86
2022/06/26 02:55:02;;;;;;;7.80;5.00;;;;;;;19.37;89.33;97955.16;4132599;28;21294;-87
2022/06/26 02:57:06;;;;;;;5.53;3.97;;;;;;;19.34;89.07;97952.00;4155662;28;20636;-87
2022/06/26 02:59:10;;;;;;;5.03;4.53;;;;;;;19.30;89.29;97954.13;4142755;28;20675;-87
2022/06/26 03:01:14;;;;;;;5.20;4.53;;;;;;;19.32;90.13;97969.84;4143038;28;20683;-87
2022/06/26 03:03:18;;;;;;;6.43;4.50;;;;;;;19.31;90.44;97971.66;4125022;28;21044;-87
2022/06/26 03:05:22;;;;;;;5.90;4.77;;;;;;;19.32;88.68;97970.69;4122209;28;20667;-87
2022/06/26 03:07:25;;;;;;;5.07;4.60;;;;;;;19.30;88.17;97963.88;4129974;28;20698;-87
2022/06/26 03:09:29;;;;;;;4.60;4.20;;;;;;;19.30;88.02;97962.06;4128146;28;20629;-87
2022/06/26 03:11:32;;;;;;;5.50;5.00;;;;;;;19.31;88.14;97957.63;4146182;28;20643;-87
2022/06/26 03:13:36;;;;;;;5.27;4.77;;;;;;;19.26;89.83;97955.44;4122270;28;20666;-88
2022/06/26 03:15:41;;;;;;;5.20;4.37;;;;;;;19.25;90.21;97950.31;4142511;28;20652;-86
2022/06/26 03:17:46;;;;;;;6.97;4.67;;;;;;;19.23;89.10;97949.63;4141800;28;20629;-87
2022/06/26 03:19:53;;;;;;;5.00;4.50;;;;;;;19.20;89.95;97948.16;4128062;28;20687;-86
2022/06/26 03:21:56;;;;;;;6.13;4.53;;;;;;;19.20;90.14;97952.59;4156974;28;20620;-87
2022/06/26 03:24:02;;;;;;;4.80;4.10;;;;;;;19.19;90.66;97935.91;4136869;28;21414;-87
2022/06/26 03:26:07;;;;;;;4.90;4.40;;;;;;;19.21;90.55;97944.50;4123354;28;20634;-87
2022/06/26 03:28:10;;;;;;;4.70;4.27;;;;;;;19.25;89.45;97945.84;4139724;28;20981;-87
2022/06/26 03:30:16;;;;;;;5.70;4.13;;;;;;;19.26;89.78;97952.81;4138319;28;20679;-87
2022/06/26 03:32:24;;;;;;;4.63;4.17;;;;;;;19.30;89.99;97942.72;4136374;28;21246;-87
2022/06/26 03:34:37;;;;;;;9.63;4.53;;;;;;;19.33;89.94;97947.69;4128278;28;21944;-87
2022/06/26 03:36:42;;;;;;;4.83;4.30;;;;;;;19.33;88.90;97953.81;4127914;28;21104;-87
2022/06/26 03:38:45;;;;;;;5.80;3.97;;;;;;;19.37;88.17;97950.66;4126608;28;20692;-87
2022/06/26 03:40:48;;;;;;;6.40;4.27;;;;;;;19.44;87.86;97946.41;4127636;28;20674;-87
2022/06/26 03:42:56;;;;;;;6.43;4.40;;;;;;;19.50;87.76;97944.91;4130384;28;20650;-87
2022/06/26 03:45:00;;;;;;;4.77;4.20;;;;;;;19.54;87.69;97940.94;4134340;28;21002;-87
2022/06/26 03:47:04;;;;;;;4.70;4.27;;;;;;;19.59;89.53;97941.28;4142470;28;20740;-87
2022/06/26 03:49:08;;;;;;;4.67;4.27;;;;;;;19.63;89.38;97939.97;4123043;28;20753;-87
2022/06/26 03:51:12;;;;;;;5.50;4.33;;;;;;;19.66;87.84;97944.94;4141455;28;21058;-87
2022/06/26 03:53:16;;;;;;;4.70;4.07;;;;;;;19.71;89.16;97934.66;4129697;28;20642;-87
2022/06/26 03:55:19;;;;;;;5.47;4.60;;;;;;;19.74;88.35;97937.00;4118228;28;20651;-87
2022/06/26 03:57:23;;;;;;;4.27;3.87;;;;;;;19.75;88.32;97944.75;4123806;28;20680;-87
2022/06/26 03:59:28;;;;;;;4.43;4.10;;;;;;;19.76;88.30;97942.97;4126210;28;21252;-86
2022/06/26 04:01:50;;;;;;;5.53;4.70;;;;;;;19.74;89.37;97948.44;4128742;28;20647;-87
2022/06/26 04:03:53;;;;;;;5.30;4.57;;;;;;;19.74;88.45;97956.38;4137273;28;20638;-86
2022/06/26 04:05:57;;;;;;;5.47;4.30;;;;;;;19.74;87.84;97953.72;4141102;28;20716;-87
2022/06/26 04:08:00;;;;;;;4.80;4.40;;;;;;;19.74;89.11;97953.72;4142902;28;20627;-87
2022/06/26 04:10:11;;;;;;;4.73;4.33;;;;;;;19.78;89.22;97960.31;4130901;28;20648;-86
2022/06/26 04:12:14;;;;;;;5.07;4.57;;;;;;;19.76;88.13;97954.38;4145403;28;21095;-87
2022/06/26 04:14:18;;;;;;;4.50;4.10;;;;;;;19.76;87.67;97943.78;4125956;28;20770;-87
2022/06/26 04:16:21;;;;;;;4.77;4.37;;;;;;;19.78;87.37;97948.91;4150877;28;20643;-87
2022/06/26 04:18:26;;;;;;;4.60;4.20;;;;;;;19.75;86.49;97944.75;4138265;28;21241;-87
2022/06/26 04:20:31;;;;;;;4.90;4.40;;;;;;;19.76;87.08;97959.66;4154501;28;20672;-87
2022/06/26 04:22:36;;;;;;;5.47;4.97;;;;;;;19.80;87.83;97958.34;4143275;28;20749;-87
2022/06/26 04:24:39;;;;;;;5.47;4.80;;;;;;;19.82;87.40;97956.38;4143396;28;20654;-87
2022/06/26 04:26:44;;;;;;;5.80;4.20;;;;;;;19.85;86.90;97967.44;4128954;28;20746;-87
2022/06/26 04:28:48;;;;;;;4.70;4.30;;;;;;;19.88;86.27;97967.16;4124479;28;21258;-87
2022/06/26 04:30:51;;;;;;;5.67;4.13;;;;;;;19.92;87.89;97975.56;4122130;28;20642;-87
2022/06/26 04:32:54;;;;;;;5.87;4.23;;;;;;;19.96;87.47;97969.78;4139826;28;20649;-87
2022/06/26 04:34:57;;;;;;;4.90;4.47;;;;;;;20.02;87.10;97968.31;4126772;28;20707;-86
2022/06/26 04:37:01;;;;;;;6.63;4.30;;;;;;;20.11;86.72;97985.84;4126178;28;20636;-87
2022/06/26 04:39:04;;;;;;;4.57;4.17;;;;;;;20.19;86.73;97980.56;4129257;28;20782;-86
2022/06/26 04:43:30;;;;;;;5.33;3.77;;;;;;;20.36;86.81;97980.38;4152800;28;20680;-87
2022/06/26 04:45:33;;;;;;;8.10;4.40;;;;;;;20.40;86.54;97977.22;4134601;28;20641;-87
2022/06/26 04:47:36;;;;;;;4.73;4.20;;;;;;;20.39;85.38;97980.03;4124935;28;20638;-86
2022/06/26 04:49:45;;;;;;;5.00;3.83;;;;;;;20.41;85.62;97981.50;4127721;28;20633;-86
2022/06/26 04:51:48;;;;;;;4.83;4.40;;;;;;;20.43;86.20;97968.94;4126524;28;20646;-87
2022/06/26 04:54:07;;;;;;;4.80;4.30;;;;;;;20.48;85.66;97968.44;4140760;28;20649;-86
2022/06/26 04:56:12;;;;;;;5.17;4.10;;;;;;;20.49;86.71;97968.28;4128301;28;20645;-87
2022/06/26 04:58:24;;;;;;;5.37;4.60;;;;;;;20.49;86.69;97962.97;4126363;28;20639;-87
2022/06/26 05:00:31;;;;;;;5.00;4.50;;;;;;;20.52;85.72;97964.44;4123983;28;21189;-87
2022/06/26 05:02:45;;;;;;;6.27;4.13;;;;;;;20.54;86.33;97959.81;4124660;28;20650;-86
2022/06/26 05:04:54;;;;;;;5.23;4.73;;;;;;;20.57;88.14;97968.25;4121431;28;20773;-86
2022/06/26 05:07:32;;;;;;;5.30;4.80;;;;;;;20.62;88.26;97973.03;4129593;28;21202;-87
2022/06/26 05:09:36;;;;;;;5.63;4.60;;;;;;;20.67;88.52;97965.41;4135125;28;23572;-87
2022/06/26 05:11:40;;;;;;;7.50;4.50;;;;;;;20.71;88.06;97961.44;4128405;28;20634;-87
2022/06/26 05:13:43;;;;;;;6.73;4.60;;;;;;;20.85;87.54;97958.91;4139428;28;20639;-87
2022/06/26 05:16:07;;;;;;;6.70;4.60;;;;;;;21.08;89.07;97960.66;4133151;28;21146;-87
2022/06/26 05:18:11;;;;;;;5.10;4.17;;;;;;;21.30;87.48;97966.00;4140944;28;20646;-87
2022/06/26 05:20:14;;;;;;;4.17;3.77;;;;;;;21.52;87.74;97962.59;4125069;28;20647;-87
2022/06/26 05:22:17;;;;;;;5.33;2.90;;;;;;;21.71;85.84;97961.31;4135779;28;20684;-87
2022/06/26 05:24:20;;;;;;;2.80;2.57;;;;;;;21.91;82.77;97965.97;4142505;28;20637;-87
2022/06/26 05:26:24;;;;;;;3.23;2.93;;;;;;;22.08;82.97;97967.50;4124898;28;20643;-87
2022/06/26 05:28:29;;;;;;;3.40;2.50;;;;;;;22.23;82.11;97973.72;4125995;28;20665;-87
2022/06/26 05:30:33;;;;;;;3.43;2.33;;;;;;;22.31;82.42;97969.13;4138945;28;20725;-87
2022/06/26 05:32:40;;;;;;;2.57;2.10;;;;;;;22.31;80.27;97964.66;4125805;28;21048;-85
2022/06/26 05:34:48;;;;;;;2.97;2.30;;;;;;;22.31;79.79;97959.34;4125396;28;20661;-87
2022/06/26 05:36:51;;;;;;;3.00;2.07;;;;;;;22.32;79.81;97963.63;4142305;28;20646;-87
2022/06/26 05:38:56;;;;;;;2.67;2.03;;;;;;;22.40;80.31;97963.59;4121282;28;20646;-87
2022/06/26 05:40:59;;;;;;;4.97;2.57;;;;;;;22.45;81.74;97979.00;4142896;28;20727;-87
2022/06/26 05:43:02;;;;;;;2.80;2.50;;;;;;;22.47;81.47;97977.78;4124580;28;20637;-87
2022/06/26 05:45:06;;;;;;;3.77;2.83;;;;;;;22.48;81.63;97979.44;4122761;28;20668;-87
2022/06/26 05:47:10;;;;;;;3.93;3.10;;;;;;;22.43;82.10;97975.66;4120019;28;20689;-87
2022/06/26 05:49:41;;;;;;;5.03;2.70;;;;;;;22.39;82.65;97987.69;4127660;28;20668;-87
2022/06/26 05:52:11;;;;;;;4.33;2.93;;;;;;;22.38;83.00;97997.47;4137422;28;20684;-87
2022/06/26 05:54:30;;;;;;;4.27;3.33;;;;;;;22.34;83.93;97998.88;4121178;28;20625;-88
2022/06/26 05:57:00;;;;;;;3.87;3.20;;;;;;;22.32;84.23;98003.53;4118677;28;20636;-87
2022/06/26 05:59:29;;;;;;;4.37;3.53;;;;;;;22.31;84.70;98012.53;4114989;28;20637;-87
2022/06/26 06:01:54;;;;;;;3.80;3.30;;;;;;;22.31;84.67;98012.53;4132812;28;20648;-88
2022/06/26 06:03:57;;;;;;;4.67;3.40;;;;;;;22.31;83.95;98023.16;4126859;28;20628;-87
2022/06/26 06:06:02;;;;;;;3.97;2.83;;;;;;;22.32;84.03;98019.47;4146630;28;20665;-87
2022/06/26 06:08:06;;;;;;;3.23;2.93;;;;;;;22.35;84.18;98021.78;4124885;28;20644;-88
2022/06/26 06:10:10;;;;;;;3.60;2.97;;;;;;;22.40;83.85;98037.19;4138278;28;20648;-87
2022/06/26 06:12:14;;;;;;;5.37;3.27;;;;;;;22.44;84.10;98038.50;4124485;28;20656;-87
2022/06/26 06:14:17;;;;;;;3.57;3.00;;;;;;;22.49;84.54;98041.44;4124332;28;20628;-88
2022/06/26 06:16:21;;;;;;;3.37;2.70;;;;;;;22.57;85.06;98046.69;4124131;28;21238;-88
2022/06/26 06:18:26;;;;;;;3.17;2.87;;;;;;;22.66;84.01;98042.94;4140538;28;20636;-86
2022/06/26 06:20:29;;;;;;;3.30;2.90;;;;;;;22.73;83.51;98044.69;4140341;28;20636;-86
2022/06/26 06:22:34;;;;;;;4.30;2.90;;;;;;;22.80;81.68;98040.31;4125939;28;20630;-87
2022/06/26 06:24:38;;;;;;;2.80;2.47;;;;;;;22.92;81.22;98041.53;4124749;28;20665;-87
2022/06/26 06:26:41;;;;;;;2.60;2.37;;;;;;;23.05;79.71;98047.91;4122087;28;20632;-87
2022/06/26 06:28:49;;;;;;;2.67;2.17;;;;;;;23.13;79.54;98057.63;4125816;28;20688;-87
2022/06/26 06:30:53;;;;;;;3.10;2.30;;;;;;;23.19;80.87;98056.91;4146651;28;20646;-86
2022/06/26 06:32:59;;;;;;;2.97;2.27;;;;;;;23.21;80.28;98053.03;4123823;28;20672;-88
2022/06/26 06:35:13;;;;;;;3.63;2.50;;;;;;;23.20;79.34;98049.53;4120491;28;20713;-87
2022/06/26 06:37:16;;;;;;;2.47;2.27;;;;;;;23.22;80.33;98041.38;4141563;28;21254;-87
2022/06/26 06:39:21;;;;;;;3.07;2.77;;;;;;;23.23;78.63;98027.06;4118142;28;20642;-88
2022/06/26 06:41:27;;;;;;;3.03;2.57;;;;;;;23.19;78.17;98024.94;4136654;28;20688;-87
2022/06/26 06:43:40;;;;;;;2.60;2.40;;;;;;;23.18;78.30;98033.94;4140771;28;20636;-87
2022/06/26 06:46:15;;;;;;;5.10;3.00;;;;;;;23.23;78.70;98038.53;4133630;28;20633;-87
2022/06/26 06:48:31;;;;;;;3.13;2.83;;;;;;;23.34;79.61;98050.56;4123309;28;20692;-88
2022/06/26 06:50:43;;;;;;;3.97;2.53;;;;;;;23.44;79.53;98051.94;4139844;28;20679;-87
2022/06/26 06:52:46;;;;;;;2.80;2.60;;;;;;;23.55;78.00;98056.78;4137987;28;21219;-86
2022/06/26 06:54:51;;;;;;;3.17;2.63;;;;;;;23.76;76.65;98049.69;4134342;28;21268;-88
2022/06/26 06:56:54;;;;;;;2.73;2.43;;;;;;;23.81;77.36;98049.13;4127524;28;20677;-87
2022/06/26 06:58:57;;;;;;;3.80;2.60;;;;;;;24.04;77.69;98047.97;4125138;28;20632;-87
2022/06/26 07:01:01;;;;;;;3.43;2.60;;;;;;;24.10;76.81;98049.88;4134836;28;20652;-87
2022/06/26 07:03:05;;;;;;;3.60;2.53;;;;;;;24.10;75.52;98038.38;4120604;28;20640;-87
2022/06/26 07:05:09;;;;;;;3.63;2.77;;;;;;;24.19;74.79;98040.72;4133076;28;21249;-87
2022/06/26 07:07:12;;;;;;;2.90;2.50;;;;;;;24.24;74.33;98035.66;4132111;28;20640;-90
2022/06/26 07:09:16;;;;;;;3.53;2.67;;;;;;;24.20;74.79;98039.72;4131602;28;20636;-87
2022/06/26 07:11:24;;;;;;;2.80;2.60;;;;;;;24.21;74.00;98052.84;4143256;28;20702;-87
2022/06/26 07:13:32;;;;;;;3.80;2.60;;;;;;;24.36;75.31;98050.16;4128036;28;21205;-87
2022/06/26 07:15:35;;;;;;;4.00;2.50;;;;;;;24.49;75.35;98052.94;4125478;28;20792;-88
2022/06/26 07:17:38;;;;;;;2.60;2.40;;;;;;;24.53;75.10;98052.38;4141254;28;21227;-87
2022/06/26 07:19:45;;;;;;;3.53;2.50;;;;;;;24.72;76.55;98051.72;4139136;28;20686;-87
2022/06/26 07:21:49;;;;;;;3.30;2.60;;;;;;;24.67;72.48;98052.31;4134053;28;20669;-88
2022/06/26 07:23:52;;;;;;;3.10;2.43;;;;;;;24.98;76.06;98055.41;4148975;28;20680;-87
2022/06/26 07:26:12;;;;;;;2.80;2.47;;;;;;;25.65;72.13;98063.47;4122991;28;20669;-87
2022/06/26 07:28:17;;;;;;;2.60;2.33;;;;;;;26.14;73.59;98064.84;4127547;28;21234;-88
2022/06/26 07:30:21;;;;;;;2.80;2.50;;;;;;;26.46;68.64;98072.19;4123608;28;20775;-88
2022/06/26 07:32:33;;;;;;;2.93;2.63;;;;;;;26.76;70.74;98076.09;4130878;28;20650;-88
2022/06/26 07:34:37;;;;;;;3.00;2.13;;;;;;;27.03;68.46;98072.41;4127383;28;20703;-87
2022/06/26 07:36:41;;;;;;;4.00;2.73;;;;;;;27.31;69.34;98065.78;4126753;28;20650;-87
2022/06/26 07:38:45;;;;;;;2.40;2.00;;;;;;;27.45;66.26;98070.91;4127910;28;20630;-88
2022/06/26 07:40:50;;;;;;;2.73;2.40;;;;;;;27.64;67.23;98073.56;4130338;28;20693;-88
2022/06/26 07:42:55;;;;;;;2.30;2.00;;;;;;;27.81;66.26;98072.03;4143098;28;20633;-87
2022/06/26 07:45:01;;;;;;;3.60;2.30;;;;;;;27.92;64.22;98065.19;4126957;28;20687;-88
2022/06/26 07:47:19;;;;;;;4.63;2.37;;;;;;;28.09;65.02;98077.94;4140002;28;20648;-88
2022/06/26 07:49:35;;;;;;;2.60;2.30;;;;;;;28.25;63.38;98080.13;4125225;28;21706;-87
2022/06/26 07:51:39;;;;;;;2.80;1.80;;;;;;;28.41;63.48;98072.38;4144283;28;21085;-87
2022/06/26 07:53:42;;;;;;;2.30;1.90;;;;;;;28.53;62.73;98076.84;4140079;28;20636;-88
2022/06/26 07:55:46;;;;;;;2.50;2.03;;;;;;;28.66;64.00;98078.63;4141594;28;20652;-88
2022/06/26 07:57:49;;;;;;;2.20;1.80;;;;;;;28.78;63.74;98075.03;4129902;28;20631;-88
2022/06/26 07:59:52;;;;;;;3.70;2.10;;;;;;;28.84;61.87;98076.06;4132308;28;20648;-87
2022/06/26 08:01:56;;;;;;;2.40;2.07;;;;;;;28.92;61.81;98068.53;4117549;28;20641;-87
2022/06/26 08:04:00;;;;;;;1.93;1.73;;;;;;;29.11;63.04;98062.97;4119859;28;20667;-87
2022/06/26 08:06:03;;;;;;;2.10;1.90;;;;;;;29.22;60.99;98067.63;4123986;28;20766;-88
2022/06/26 08:08:07;;;;;;;2.00;1.60;;;;;;;29.02;61.43;98064.28;4130152;28;20650;-88
2022/06/26 08:10:11;;;;;;;2.43;1.87;;;;;;;29.01;65.04;98059.94;4132421;28;20700;-87
2022/06/26 08:12:14;;;;;;;2.03;1.77;;;;;;;29.16;60.62;98054.25;4114215;28;20666;-87
2022/06/26 08:14:17;;;;;;;2.47;1.87;;;;;;;29.19;61.01;98061.88;4116412;28;20629;-88
2022/06/26 08:16:21;;;;;;;2.10;1.73;;;;;;;29.03;61.58;98051.66;4139858;28;20733;-89
2022/06/26 08:18:26;;;;;;;2.17;1.97;;;;;;;28.99;61.10;98043.22;4137543;28;20733;-88
2022/06/26 08:20:29;;;;;;;3.40;1.83;;;;;;;29.15;62.41;98041.84;4117814;28;20647;-87
2022/06/26 08:22:34;;;;;;;2.10;1.87;;;;;;;29.12;60.78;98048.50;4121720;28;21059;-87
2022/06/26 08:24:39;;;;;;;2.43;1.73;;;;;;;29.19;64.26;98043.88;4120216;28;20634;-87
2022/06/26 08:26:42;;;;;;;2.50;1.93;;;;;;;29.31;59.87;98044.00;4126458;28;20631;-87
2022/06/26 08:28:46;;;;;;;2.50;1.90;;;;;;;29.23;59.56;98036.19;4134941;28;20631;-88
2022/06/26 08:30:49;;;;;;;1.93;1.73;;;;;;;29.27;60.62;98030.16;4133885;28;20635;-87
2022/06/26 08:32:56;;;;;;;2.13;1.93;;;;;;;29.22;60.03;98034.53;4144154;28;20686;-88
2022/06/26 08:35:00;;;;;;;2.20;1.97;;;;;;;29.31;62.69;98034.06;4128353;28;20787;-87
2022/06/26 08:37:05;;;;;;;3.07;2.00;;;;;;;29.48;62.29;98030.56;4137020;28;20718;-89
2022/06/26 08:39:09;;;;;;;2.97;2.07;;;;;;;29.58;59.87;98038.09;4135420;28;20700;-88
2022/06/26 08:41:13;;;;;;;2.33;1.97;;;;;;;29.49;60.11;98028.69;4126854;28;20666;-89
2022/06/26 08:43:17;;;;;;;2.90;2.00;;;;;;;29.38;60.23;98032.13;4126666;28;20757;-88
2022/06/26 08:45:22;;;;;;;2.97;2.13;;;;;;;29.45;63.19;98030.16;4122862;28;21022;-89
2022/06/26 08:47:26;;;;;;;3.10;2.47;;;;;;;29.47;61.12;98028.91;4128608;28;20645;-89
2022/06/26 08:49:33;;;;;;;2.37;2.10;;;;;;;29.50;60.15;98033.03;4145715;28;21213;-88
2022/06/26 08:51:48;;;;;;;2.40;2.20;;;;;;;29.63;63.53;98038.25;4136846;28;20650;-88
2022/06/26 08:53:53;;;;;;;3.57;3.17;;;;;;;29.87;63.36;98045.44;4128045;28;20630;-88
2022/06/26 08:55:56;;;;;;;2.80;2.50;;;;;;;29.88;61.05;98039.00;4124051;28;20640;-88
2022/06/26 08:58:02;;;;;;;2.60;2.10;;;;;;;29.84;59.93;98040.50;4134767;28;21357;-89
2022/06/26 09:00:07;;;;;;;3.17;2.13;;;;;;;29.85;61.19;98040.28;4138853;28;20734;-89
2022/06/26 09:02:10;;;;;;;2.47;2.10;;;;;;;29.96;60.92;98044.88;4132811;28;20650;-90
2022/06/26 09:04:14;;;;;;;3.20;1.93;;;;;;;29.88;59.14;98045.22;4116525;28;20723;-88
2022/06/26 09:06:17;;;;;;;2.50;2.00;;;;;;;29.80;59.21;98055.44;4121389;28;21313;-87
2022/06/26 09:08:25;;;;;;;2.23;2.00;;;;;;;29.76;63.17;98049.66;4117226;28;20661;-88
2022/06/26 09:10:29;;;;;;;2.30;2.00;;;;;;;29.83;60.81;98050.44;4135291;28;20642;-89
2022/06/26 09:12:36;;;;;;;2.47;1.80;;;;;;;29.88;60.86;98047.09;4126802;28;21214;-88
2022/06/26 09:14:40;;;;;;;2.07;1.87;;;;;;;29.86;59.88;98047.31;4140820;28;21205;-89
2022/06/26 09:16:44;;;;;;;4.50;1.83;;;;;;;29.79;60.20;98048.41;4131615;28;21046;-88
2022/06/26 09:18:47;;;;;;;2.60;2.20;;;;;;;29.86;60.54;98054.53;4135290;28;20628;-86
2022/06/26 09:20:52;;;;;;;2.10;1.90;;;;;;;29.90;62.21;98043.09;4118738;28;20677;-86
2022/06/26 09:22:57;;;;;;;2.27;1.90;;;;;;;29.98;61.12;98043.63;4119451;28;20642;-87
2022/06/26 09:25:03;;;;;;;2.17;1.80;;;;;;;30.02;62.63;98036.72;4113051;28;20634;-87
2022/06/26 09:27:10;;;;;;;3.80;2.30;;;;;;;30.03;62.33;98040.25;4124586;28;20634;-86
2022/06/26 09:29:15;;;;;;;2.87;1.90;;;;;;;30.03;62.26;98038.38;4119637;28;20689;-86
2022/06/26 09:31:20;;;;;;;2.60;2.20;;;;;;;30.00;61.72;98041.50;4126509;28;20642;-85
2022/06/26 09:33:26;;;;;;;3.03;1.93;;;;;;;30.03;63.59;98045.63;4140953;28;21183;-85
2022/06/26 09:35:32;;;;;;;2.60;2.07;;;;;;;30.00;61.28;98038.00;4125969;28;21225;-86
2022/06/26 09:37:36;;;;;;;2.40;2.20;;;;;;;29.94;61.77;98044.31;4139143;28;20648;-86
2022/06/26 09:40:02;;;;;;;3.40;2.23;;;;;;;30.02;63.98;98043.97;4141952;28;21056;-86
2022/06/26 09:42:17;;;;;;;2.30;1.80;;;;;;;30.11;62.93;98040.75;4128227;28;20738;-86
2022/06/26 09:44:21;;;;;;;2.40;2.20;;;;;;;30.07;60.97;98041.41;4123473;28;20634;-86
2022/06/26 09:46:29;;;;;;;2.60;2.40;;;;;;;30.00;60.24;98035.31;4138118;28;20637;-87
2022/06/26 09:48:33;;;;;;;1.90;1.70;;;;;;;29.92;58.39;98032.94;4139510;28;20672;-86
2022/06/26 09:50:36;;;;;;;2.10;1.83;;;;;;;29.88;59.87;98028.25;4134408;28;21360;-86
2022/06/26 09:52:40;;;;;;;2.90;2.00;;;;;;;29.89;60.50;98027.19;4123060;28;20743;-86
2022/06/26 09:54:44;;;;;;;2.10;1.90;;;;;;;29.96;61.78;98026.88;4134198;28;20752;-86
2022/06/26 09:56:51;;;;;;;3.00;2.70;;;;;;;30.00;61.47;98029.94;4126197;28;20725;-87